createdAt,value
2022-10-18T00:01:31.268Z,8.83
2022-10-18T00:03:59.620Z,8.73
2022-10-18T00:06:27.155Z,8.33
2022-10-18T00:08:54.689Z,7.00
2022-10-18T00:11:22.234Z,6.77
2022-10-18T00:13:49.771Z,7.07
2022-10-18T00:16:18.073Z,7.47
2022-10-18T00:18:45.685Z,12.83
2022-10-18T00:21:13.231Z,8.60
2022-10-18T00:23:40.775Z,7.23
2022-10-18T00:26:11.095Z,7.43
2022-10-18T00:28:38.638Z,7.87
2022-10-18T00:31:09.592Z,8.63
2022-10-18T00:33:37.145Z,7.40
2022-10-18T00:36:04.682Z,7.47
2022-10-18T00:38:32.205Z,6.73
2022-10-18T00:40:59.779Z,6.80
2022-10-18T00:43:27.314Z,7.47
2022-10-18T00:45:54.829Z,6.57
2022-10-18T00:48:22.384Z,7.32
2022-10-18T00:50:49.910Z,6.03
2022-10-18T00:53:17.443Z,5.90
2022-10-18T00:55:45.207Z,5.70
2022-10-18T00:58:12.749Z,6.90
2022-10-18T01:00:40.284Z,7.03
2022-10-18T01:03:07.850Z,6.23
2022-10-18T01:05:37.785Z,5.70
2022-10-18T01:08:20.464Z,5.37
2022-10-18T01:11:12.281Z,6.50
2022-10-18T01:13:55.706Z,6.40
2022-10-18T01:16:32.732Z,6.87
2022-10-18T01:19:18.959Z,7.00
2022-10-18T01:21:55.432Z,6.77
2022-10-18T01:24:44.311Z,6.60
2022-10-18T01:27:24.193Z,8.40
2022-10-18T01:30:09.786Z,8.03
2022-10-18T01:32:37.321Z,6.70
2022-10-18T01:35:04.858Z,7.23
2022-10-18T01:37:33.240Z,6.40
2022-10-18T01:40:00.290Z,6.77
2022-10-18T01:42:28.581Z,6.23
2022-10-18T01:44:56.156Z,6.00
2022-10-18T01:47:23.680Z,6.97
2022-10-18T01:49:51.984Z,7.97
2022-10-18T01:52:19.550Z,8.03
2022-10-18T01:54:47.083Z,6.43
2022-10-18T01:57:20.801Z,5.77
2022-10-18T01:59:51.341Z,5.03
2022-10-18T02:02:18.877Z,5.70
2022-10-18T02:04:47.185Z,5.40
2022-10-18T02:07:33.329Z,5.67
2022-10-18T02:10:12.568Z,5.77
2022-10-18T02:12:40.906Z,6.13
2022-10-18T02:15:08.491Z,6.40
2022-10-18T02:17:36.025Z,6.20
2022-10-18T02:20:03.641Z,5.90
2022-10-18T02:22:31.315Z,6.23
2022-10-18T02:24:58.669Z,7.50
2022-10-18T02:27:26.224Z,7.12
2022-10-18T02:29:53.748Z,5.90
2022-10-18T02:32:32.932Z,5.27
2022-10-18T02:35:00.386Z,5.80
2022-10-18T02:37:27.946Z,7.20
2022-10-18T02:39:56.234Z,6.73
2022-10-18T02:42:23.761Z,6.13
2022-10-18T02:44:51.284Z,6.37
2022-10-18T02:47:18.860Z,7.03
2022-10-18T02:49:47.172Z,7.50
2022-10-18T02:52:14.715Z,6.47
2022-10-18T02:54:42.595Z,6.90
2022-10-18T02:57:10.119Z,6.00
2022-10-18T02:59:38.422Z,6.20
2022-10-18T03:02:05.997Z,6.43
2022-10-18T03:04:33.527Z,5.80
2022-10-18T03:07:01.824Z,5.90
2022-10-18T03:09:29.388Z,6.10
2022-10-18T03:11:56.913Z,5.60
2022-10-18T03:14:26.044Z,6.77
2022-10-18T03:16:55.145Z,6.50
2022-10-18T03:19:22.689Z,6.67
2022-10-18T03:21:50.232Z,6.07
2022-10-18T03:24:17.816Z,7.20
2022-10-18T03:26:45.351Z,7.50
2022-10-18T03:29:13.646Z,7.60
2022-10-18T03:31:41.199Z,6.57
2022-10-18T03:34:08.733Z,7.17
2022-10-18T03:36:37.038Z,6.73
2022-10-18T03:39:04.611Z,6.80
2022-10-18T03:41:32.136Z,6.67
2022-10-18T03:43:59.670Z,6.43
2022-10-18T03:46:27.214Z,6.80
2022-10-18T03:48:54.758Z,6.90
2022-10-18T03:51:22.279Z,6.87
2022-10-18T03:53:49.868Z,6.40
2022-10-18T03:56:17.435Z,6.63
2022-10-18T03:58:44.977Z,6.37
2022-10-18T04:01:12.621Z,6.43
2022-10-18T04:03:40.076Z,7.03
2022-10-18T04:06:07.611Z,7.40
2022-10-18T04:08:35.976Z,7.17
2022-10-18T04:11:09.465Z,6.73
2022-10-18T04:13:37.039Z,6.80
2022-10-18T04:16:04.625Z,6.27
2022-10-18T04:18:32.146Z,7.37
2022-10-18T04:20:59.681Z,6.77
2022-10-18T04:23:27.244Z,7.62
2022-10-18T04:25:54.769Z,6.33
2022-10-18T04:28:22.305Z,6.57
2022-10-18T04:30:50.646Z,6.30
2022-10-18T04:33:18.183Z,6.28
2022-10-18T04:35:45.716Z,6.07
2022-10-18T04:38:13.280Z,5.10
2022-10-18T04:40:40.817Z,5.03
2022-10-18T04:43:09.126Z,4.70
2022-10-18T04:45:36.691Z,4.50
2022-10-18T04:48:04.226Z,4.70
2022-10-18T04:50:31.761Z,4.50
2022-10-18T04:53:00.105Z,5.53
2022-10-18T04:55:27.637Z,4.80
2022-10-18T04:57:55.170Z,4.57
2022-10-18T05:00:23.514Z,4.43
2022-10-18T05:02:51.069Z,4.77
2022-10-18T05:05:18.613Z,5.07
2022-10-18T05:07:46.216Z,6.32
2022-10-18T05:10:14.545Z,6.07
2022-10-18T05:12:42.828Z,5.43
2022-10-18T05:15:10.973Z,5.37
2022-10-18T05:17:38.498Z,5.47
2022-10-18T05:20:06.898Z,5.23
2022-10-18T05:22:34.741Z,4.93
2022-10-18T05:25:02.738Z,6.35
2022-10-18T05:27:30.279Z,4.07
2022-10-18T05:30:00.021Z,4.23
2022-10-18T05:32:26.137Z,4.23
2022-10-18T05:34:53.682Z,4.13
2022-10-18T05:37:26.100Z,4.13
2022-10-18T05:39:49.549Z,3.90
2022-10-18T05:42:17.086Z,3.80
2022-10-18T05:44:44.648Z,3.83
2022-10-18T05:47:12.194Z,4.07
2022-10-18T05:49:40.495Z,3.90
2022-10-18T05:52:08.070Z,3.80
2022-10-18T05:54:35.597Z,4.13
2022-10-18T05:57:03.129Z,3.67
2022-10-18T05:59:31.463Z,4.33
2022-10-18T06:01:59.008Z,3.87
2022-10-18T06:04:26.542Z,3.50
2022-10-18T06:06:54.883Z,3.27
2022-10-18T06:09:22.420Z,3.67
2022-10-18T06:11:49.967Z,2.97
2022-10-18T06:14:17.528Z,3.53
2022-10-18T06:16:45.063Z,3.30
2022-10-18T06:19:13.406Z,3.23
2022-10-18T06:21:40.989Z,3.23
2022-10-18T06:24:09.291Z,3.65
2022-10-18T06:26:36.828Z,3.17
2022-10-18T06:29:05.209Z,2.97
2022-10-18T06:31:32.682Z,2.90
2022-10-18T06:34:00.208Z,3.50
2022-10-18T06:36:28.559Z,3.10
2022-10-18T06:38:56.095Z,3.30
2022-10-18T06:41:23.639Z,3.30
2022-10-18T06:43:51.213Z,3.30
2022-10-18T06:46:18.738Z,3.67
2022-10-18T06:48:46.262Z,4.23
2022-10-18T06:51:13.837Z,4.70
2022-10-18T06:53:44.334Z,3.90
2022-10-18T06:56:09.684Z,4.07
2022-10-18T06:58:38.028Z,4.37
2022-10-18T07:01:08.288Z,4.23
2022-10-18T07:03:35.824Z,5.12
2022-10-18T07:06:03.407Z,4.50
2022-10-18T07:08:31.019Z,4.30
2022-10-18T07:10:58.478Z,2.93
2022-10-18T07:13:32.414Z,2.10
2022-10-18T07:16:02.862Z,2.05
2022-10-18T07:18:30.475Z,3.90
2022-10-18T07:20:57.981Z,3.63
2022-10-18T07:23:26.273Z,3.73
2022-10-18T07:25:53.856Z,3.37
2022-10-18T07:28:21.405Z,4.07
2022-10-18T07:30:48.936Z,4.40
2022-10-18T07:33:16.501Z,3.80
2022-10-18T07:35:44.049Z,3.73
2022-10-18T07:38:11.580Z,4.00
2022-10-18T07:40:39.154Z,3.60
2022-10-18T07:43:11.393Z,3.33
2022-10-18T07:45:35.018Z,3.23
2022-10-18T07:48:03.352Z,3.70
2022-10-18T07:50:30.878Z,3.00
2022-10-18T07:52:58.413Z,3.00
2022-10-18T07:55:25.997Z,3.10
2022-10-18T07:57:53.522Z,2.50
2022-10-18T08:00:21.136Z,2.50
2022-10-18T08:02:49.389Z,2.10
2022-10-18T08:05:16.922Z,2.30
2022-10-18T08:07:44.469Z,2.33
2022-10-18T08:10:12.809Z,3.23
2022-10-18T08:12:40.344Z,2.80
2022-10-18T08:15:07.988Z,3.53
2022-10-18T08:17:35.615Z,3.20
2022-10-18T08:20:12.248Z,3.50
2022-10-18T08:22:30.641Z,3.07
2022-10-18T08:24:58.217Z,3.20
2022-10-18T08:27:25.749Z,3.27
2022-10-18T08:29:54.114Z,3.43
2022-10-18T08:32:21.626Z,2.77
2022-10-18T08:34:49.161Z,2.10
2022-10-18T08:37:16.696Z,2.10
2022-10-18T08:39:45.049Z,2.57
2022-10-18T08:42:30.910Z,2.37
2022-10-18T08:44:58.097Z,1.83
2022-10-18T08:47:31.530Z,2.37
2022-10-18T08:50:01.743Z,3.07
2022-10-18T08:52:57.625Z,2.23
2022-10-18T08:55:25.162Z,2.00
2022-10-18T08:57:52.686Z,2.40
2022-10-18T09:00:26.992Z,2.40
2022-10-18T09:03:01.361Z,2.40
2022-10-18T09:05:44.572Z,1.60
2022-10-18T09:08:17.579Z,1.53
2022-10-18T09:10:54.290Z,2.37
2022-10-18T09:13:27.969Z,1.73
2022-10-18T09:16:07.250Z,1.83
2022-10-18T09:18:46.877Z,1.80
2022-10-18T09:21:23.223Z,1.63
2022-10-18T09:23:50.779Z,1.57
2022-10-18T09:26:18.775Z,1.50
2022-10-18T09:28:52.708Z,1.83
2022-10-18T09:31:26.970Z,2.00
2022-10-18T09:33:57.253Z,1.37
2022-10-18T09:36:24.818Z,1.60
2022-10-18T09:38:52.352Z,1.80
2022-10-18T09:41:25.462Z,1.60
2022-10-18T09:43:55.721Z,1.30
2022-10-18T09:46:23.255Z,1.20
2022-10-18T09:48:59.907Z,1.30
2022-10-18T09:51:27.493Z,1.27
2022-10-18T09:53:58.071Z,1.30
2022-10-18T09:56:28.844Z,1.40
2022-10-18T09:58:56.388Z,1.43
2022-10-18T10:01:26.732Z,1.20
2022-10-18T10:03:54.303Z,0.90
2022-10-18T10:06:27.765Z,1.00
2022-10-18T10:09:01.390Z,1.73
2022-10-18T10:11:31.663Z,1.40
2022-10-18T10:13:59.201Z,1.40
2022-10-18T10:16:26.765Z,1.40
2022-10-18T10:18:54.293Z,1.10
2022-10-18T10:21:21.815Z,1.20
2022-10-18T10:23:52.068Z,1.13
2022-10-18T10:26:25.603Z,0.93
2022-10-18T10:28:53.168Z,1.30
2022-10-18T10:31:32.672Z,1.10
2022-10-18T10:34:03.308Z,1.20
2022-10-18T10:36:30.833Z,0.90
2022-10-18T10:39:07.269Z,0.90
2022-10-18T10:41:34.829Z,0.80
2022-10-18T10:44:05.283Z,0.83
2022-10-18T10:46:35.642Z,0.97
2022-10-18T10:51:30.701Z,0.83
2022-10-18T10:53:58.266Z,2.30
2022-10-18T10:56:29.286Z,1.83
2022-10-18T10:58:56.884Z,1.20
2022-10-18T11:01:24.386Z,1.33
2022-10-18T11:03:51.948Z,8.23
2022-10-18T11:06:43.480Z,2.67
2022-10-18T11:09:16.695Z,1.10
2022-10-18T11:11:44.988Z,0.80
2022-10-18T11:14:27.062Z,0.50
2022-10-18T11:16:49.303Z,0.60
2022-10-18T11:19:35.378Z,0.63
2022-10-18T11:22:02.916Z,0.60
2022-10-18T11:24:30.438Z,0.60
2022-10-18T11:26:58.013Z,0.60
2022-10-18T11:29:28.717Z,0.73
2022-10-18T11:32:09.043Z,0.50
2022-10-18T11:34:42.534Z,0.87
2022-10-18T11:37:27.246Z,0.90
2022-10-18T11:39:49.409Z,1.02
2022-10-18T11:42:39.949Z,1.10
2022-10-18T11:45:11.221Z,1.00
2022-10-18T11:47:50.957Z,0.80
2022-10-18T11:50:25.327Z,0.57
2022-10-18T11:52:55.565Z,0.70
2022-10-18T11:55:59.727Z,0.90
2022-10-18T11:58:54.704Z,0.60
2022-10-18T12:01:35.186Z,0.70
2022-10-18T12:04:14.388Z,0.70
2022-10-18T12:06:41.962Z,0.73
2022-10-18T12:09:31.475Z,0.60
2022-10-18T12:11:59.640Z,0.60
2022-10-18T12:14:29.841Z,0.90
2022-10-18T12:17:20.294Z,0.80
2022-10-18T12:19:28.633Z,1.07
2022-10-18T12:21:56.946Z,0.73
2022-10-18T12:24:24.483Z,0.80
2022-10-18T12:26:52.832Z,0.70
2022-10-18T12:29:32.251Z,0.70
2022-10-18T12:31:59.825Z,0.93
2022-10-18T12:34:39.058Z,0.80
2022-10-18T12:37:09.586Z,1.40
2022-10-18T12:39:45.113Z,1.00
2022-10-18T12:42:14.304Z,0.98
2022-10-18T12:44:41.868Z,0.83
2022-10-18T12:47:09.413Z,0.70
2022-10-18T12:49:39.126Z,0.80
2022-10-18T12:52:22.875Z,0.67
2022-10-18T12:55:02.247Z,0.70
2022-10-18T12:57:29.883Z,0.60
2022-10-18T12:59:57.334Z,0.60
2022-10-18T13:02:24.909Z,0.70
2022-10-18T13:04:52.500Z,0.70
2022-10-18T13:07:22.646Z,0.70
2022-10-18T13:10:08.524Z,0.60
2022-10-18T13:12:36.041Z,0.80
2022-10-18T13:15:34.216Z,0.53
2022-10-18T13:18:10.591Z,0.80
2022-10-18T13:20:38.953Z,0.60
2022-10-18T13:25:58.231Z,0.60
2022-10-18T13:28:31.909Z,0.83
2022-10-18T13:31:29.758Z,0.70
2022-10-18T13:33:57.290Z,0.70
2022-10-18T13:36:25.598Z,0.60
2022-10-18T13:38:56.262Z,0.60
2022-10-18T13:41:32.739Z,0.67
2022-10-18T13:43:59.521Z,0.60
2022-10-18T13:46:34.168Z,0.37
2022-10-18T13:49:16.793Z,0.30
2022-10-18T13:52:02.377Z,0.30
2022-10-18T13:55:06.676Z,0.23
2022-10-18T13:58:01.582Z,0.30
2022-10-18T14:00:48.162Z,0.30
2022-10-18T14:06:03.364Z,0.40
2022-10-18T14:08:55.583Z,0.40
2022-10-18T14:11:46.087Z,0.40
2022-10-18T14:14:36.311Z,0.50
2022-10-18T14:17:34.468Z,0.40
2022-10-18T14:20:49.122Z,0.80
2022-10-18T14:23:11.598Z,0.50
2022-10-18T14:25:39.133Z,0.70
2022-10-18T14:28:21.660Z,0.53
2022-10-18T14:30:59.063Z,0.80
2022-10-18T14:33:32.447Z,0.50
2022-10-18T14:36:11.547Z,0.60
2022-10-18T14:38:36.122Z,0.50
2022-10-18T14:41:07.183Z,0.57
2022-10-18T14:43:34.726Z,12.00
2022-10-18T14:46:18.301Z,6.00
2022-10-18T14:49:01.139Z,5.03
2022-10-18T14:51:28.701Z,0.90
2022-10-18T14:53:56.256Z,23.93
2022-10-18T14:56:32.931Z,7.25
2022-10-18T14:59:08.197Z,1.00
2022-10-18T15:01:36.547Z,0.60
2022-10-18T15:04:04.074Z,0.60
2022-10-18T15:06:31.611Z,0.50
2022-10-18T15:08:59.148Z,0.70
2022-10-18T15:11:26.719Z,0.97
2022-10-18T15:13:55.030Z,0.73
2022-10-18T15:16:22.552Z,0.50
2022-10-18T15:19:12.656Z,0.70
2022-10-18T15:21:40.935Z,1.13
2022-10-18T15:24:20.697Z,0.60
2022-10-18T15:26:48.241Z,0.57
2022-10-18T15:29:18.871Z,0.60
2022-10-18T15:31:46.481Z,0.80
2022-10-18T15:34:19.971Z,1.00
2022-10-18T15:36:47.524Z,0.63
2022-10-18T15:39:17.823Z,0.70
2022-10-18T15:41:48.177Z,1.10
2022-10-18T15:44:18.339Z,1.10
2022-10-18T15:46:47.271Z,1.23
2022-10-18T15:49:36.181Z,0.90
2022-10-18T15:52:10.117Z,0.90
2022-10-18T15:54:37.682Z,0.70
2022-10-18T15:57:08.455Z,0.70
2022-10-18T15:59:36.009Z,0.60
2022-10-18T16:02:03.608Z,0.77
2022-10-18T16:04:31.073Z,0.70
2022-10-18T16:06:59.403Z,0.73
2022-10-18T16:09:26.941Z,0.77
2022-10-18T16:11:57.214Z,0.60
2022-10-18T16:14:22.069Z,0.70
2022-10-18T16:16:49.614Z,0.60
2022-10-18T16:19:17.158Z,0.80
2022-10-18T16:21:44.745Z,1.00
2022-10-18T16:24:12.350Z,1.07
2022-10-18T16:26:39.871Z,1.10
2022-10-18T16:29:08.523Z,1.10
2022-10-18T16:31:35.980Z,0.90
2022-10-18T16:34:03.519Z,1.30
2022-10-18T16:36:31.850Z,0.93
2022-10-18T16:38:59.375Z,1.13
2022-10-18T16:41:26.946Z,1.13
2022-10-18T16:43:54.503Z,0.90
2022-10-18T16:46:22.034Z,1.03
2022-10-18T16:48:49.548Z,1.07
2022-10-18T16:51:17.133Z,1.03
2022-10-18T16:53:44.679Z,1.20
2022-10-18T16:56:20.601Z,1.10
2022-10-18T16:58:49.092Z,1.50
2022-10-18T17:01:16.731Z,1.20
2022-10-18T17:03:44.268Z,1.10
2022-10-18T17:06:14.439Z,1.20
2022-10-18T17:08:41.972Z,1.40
2022-10-18T17:11:09.511Z,1.90
2022-10-18T17:13:37.840Z,1.30
2022-10-18T17:16:05.424Z,1.40
2022-10-18T17:18:32.949Z,1.97
2022-10-18T17:21:00.521Z,1.37
2022-10-18T17:23:28.037Z,1.80
2022-10-18T17:26:05.476Z,1.27
2022-10-18T17:28:23.146Z,1.33
2022-10-18T17:30:50.670Z,1.73
2022-10-18T17:33:18.194Z,1.60
2022-10-18T17:35:45.765Z,1.90
2022-10-18T17:38:13.298Z,1.87
2022-10-18T17:40:40.812Z,1.90
2022-10-18T17:43:08.396Z,1.80
2022-10-18T17:45:36.692Z,2.10
2022-10-18T17:48:05.524Z,2.10
2022-10-18T17:50:34.675Z,2.80
2022-10-18T17:53:02.713Z,2.70
2022-10-18T17:55:30.226Z,2.70
2022-10-18T17:57:57.811Z,3.40
2022-10-18T18:00:25.361Z,3.03
2022-10-18T18:02:52.945Z,4.95
2022-10-18T18:05:20.478Z,5.50
2022-10-18T18:07:48.003Z,4.77
2022-10-18T18:10:15.537Z,5.47
2022-10-18T18:12:43.869Z,4.77
2022-10-18T18:15:11.414Z,3.40
2022-10-18T18:17:55.934Z,4.50
2022-10-18T18:20:06.701Z,3.67
2022-10-18T18:22:36.913Z,3.83
2022-10-18T18:25:01.719Z,3.27
2022-10-18T18:27:29.424Z,3.30
2022-10-18T18:29:56.951Z,2.80
2022-10-18T18:32:24.487Z,5.90
2022-10-18T18:34:53.113Z,8.70
2022-10-18T18:37:20.637Z,5.67
2022-10-18T18:39:48.159Z,4.10
2022-10-18T18:42:15.748Z,3.20
2022-10-18T18:44:44.049Z,5.87
2022-10-18T18:47:13.242Z,6.20
2022-10-18T18:49:39.906Z,6.40
2022-10-18T18:52:07.444Z,5.33
2022-10-18T18:54:34.966Z,2.50
2022-10-18T18:57:03.326Z,3.33
2022-10-18T18:59:30.862Z,4.30
2022-10-18T19:01:58.378Z,4.90
2022-10-18T19:04:26.769Z,4.60
2022-10-18T19:06:54.317Z,5.10
2022-10-18T19:09:22.618Z,4.60
2022-10-18T19:11:50.211Z,3.03
2022-10-18T19:14:17.848Z,2.87
2022-10-18T19:16:51.062Z,3.57
2022-10-18T19:19:18.636Z,2.60
2022-10-18T19:21:46.160Z,3.17
2022-10-18T19:24:13.708Z,2.80
2022-10-18T19:26:41.270Z,3.70
2022-10-18T19:29:14.242Z,3.70
2022-10-18T19:31:41.777Z,3.13
2022-10-18T19:34:10.151Z,3.20
2022-10-18T19:36:37.671Z,3.10
2022-10-18T19:39:05.186Z,3.40
2022-10-18T19:41:32.765Z,2.77
2022-10-18T19:44:00.285Z,3.07
2022-10-18T19:46:28.756Z,21.60
2022-10-18T19:48:56.330Z,10.70
2022-10-18T19:51:27.852Z,6.53
2022-10-18T19:53:52.177Z,6.97
2022-10-18T19:56:19.760Z,5.87
2022-10-18T19:58:47.287Z,5.63
2022-10-18T20:01:15.633Z,6.10
2022-10-18T20:03:43.174Z,6.23
2022-10-18T20:06:10.700Z,9.87
2022-10-18T20:08:38.282Z,5.27
2022-10-18T20:11:05.817Z,5.07
2022-10-18T20:13:33.342Z,5.70
2022-10-18T20:16:00.870Z,5.83
2022-10-18T20:18:28.451Z,5.00
2022-10-18T20:20:56.005Z,5.57
2022-10-18T20:23:23.550Z,6.07
2022-10-18T20:25:59.837Z,7.57
2022-10-18T20:28:27.415Z,5.80
2022-10-18T20:31:03.918Z,8.85
2022-10-18T20:33:31.451Z,8.90
2022-10-18T20:36:01.951Z,7.83
2022-10-18T20:38:29.494Z,7.70
2022-10-18T20:40:57.029Z,8.87
2022-10-18T20:43:24.574Z,10.05
2022-10-18T20:45:54.944Z,6.30
2022-10-18T20:48:22.478Z,6.00
2022-10-18T20:50:50.003Z,6.63
2022-10-18T20:53:18.335Z,8.33
2022-10-18T20:55:45.882Z,8.47
2022-10-18T20:58:13.415Z,9.53
2022-10-18T21:00:41.237Z,9.73
2022-10-18T21:03:08.804Z,9.40
2022-10-18T21:05:36.314Z,10.27
2022-10-18T21:08:05.091Z,10.07
2022-10-18T21:10:32.626Z,10.43
2022-10-18T21:13:00.174Z,9.87
2022-10-18T21:15:28.544Z,5.90
2022-10-18T21:17:56.074Z,6.00
2022-10-18T21:20:23.602Z,5.90
2022-10-18T21:22:51.162Z,5.40
2022-10-18T21:25:18.698Z,6.40
2022-10-18T21:27:46.231Z,5.53
2022-10-18T21:30:13.817Z,6.00
2022-10-18T21:32:41.350Z,9.50
2022-10-18T21:35:08.884Z,10.10
2022-10-18T21:37:36.449Z,9.40
2022-10-18T21:40:03.984Z,11.30
2022-10-18T21:42:31.823Z,11.43
2022-10-18T21:44:59.130Z,12.33
2022-10-18T21:47:26.675Z,12.63
2022-10-18T21:49:54.219Z,16.15
2022-10-18T21:52:21.823Z,14.30
2022-10-18T21:54:50.120Z,13.37
2022-10-18T21:57:18.432Z,12.43
2022-10-18T21:59:45.991Z,12.93
2022-10-18T22:02:13.514Z,13.13
2022-10-18T22:04:41.050Z,13.97
2022-10-18T22:07:08.634Z,13.77
2022-10-18T22:09:36.178Z,13.17
2022-10-18T22:12:04.501Z,12.97
2022-10-18T22:14:32.697Z,13.30
2022-10-18T22:17:00.024Z,14.37
2022-10-18T22:19:27.575Z,13.87
2022-10-18T22:21:55.179Z,15.30
2022-10-18T22:24:22.800Z,14.53
2022-10-18T22:26:51.085Z,13.07
2022-10-18T22:29:18.679Z,11.27
2022-10-18T22:31:46.205Z,10.47
2022-10-18T22:34:13.738Z,8.07
2022-10-18T22:36:41.303Z,7.93
2022-10-18T22:39:08.862Z,7.40
2022-10-18T22:41:36.402Z,7.67
2022-10-18T22:44:04.747Z,8.17
2022-10-18T22:46:32.268Z,9.83
2022-10-18T22:48:59.803Z,10.95
2022-10-18T22:51:27.452Z,11.10
2022-10-18T22:53:54.942Z,12.10
2022-10-18T22:56:22.476Z,13.90
2022-10-18T22:58:50.110Z,11.30
2022-10-18T23:01:17.623Z,13.30
2022-10-18T23:03:45.152Z,14.20
2022-10-18T23:06:19.362Z,15.63
2022-10-18T23:08:47.685Z,15.23
2022-10-18T23:11:15.228Z,14.47
2022-10-18T23:13:42.784Z,15.07
2022-10-18T23:16:10.327Z,15.53
2022-10-18T23:21:09.345Z,15.20
2022-10-18T23:23:36.896Z,15.93
2022-10-18T23:26:05.183Z,14.87
2022-10-18T23:28:35.602Z,13.53
2022-10-18T23:31:08.652Z,13.60
2022-10-18T23:33:36.205Z,16.80
2022-10-18T23:36:03.780Z,15.60
2022-10-18T23:38:32.092Z,21.33
2022-10-18T23:40:59.618Z,17.60
2022-10-18T23:43:27.950Z,24.12
2022-10-18T23:45:55.489Z,21.63
2022-10-18T23:48:23.028Z,20.20
2022-10-18T23:50:50.612Z,20.80
2022-10-18T23:53:18.157Z,20.43
2022-10-18T23:56:07.504Z,20.67
2022-10-18T23:58:35.028Z,21.33
